createdAt,value
2022-10-17T00:00:45.933Z,9.82
2022-10-17T00:03:13.053Z,9.85
2022-10-17T00:05:45.662Z,9.89
2022-10-17T00:08:14.719Z,9.83
2022-10-17T00:10:41.735Z,9.80
2022-10-17T00:13:09.650Z,9.79
2022-10-17T00:15:36.711Z,9.81
2022-10-17T00:18:03.814Z,9.82
2022-10-17T00:20:32.726Z,9.82
2022-10-17T00:23:00.600Z,9.84
2022-10-17T00:25:27.542Z,9.88
2022-10-17T00:27:54.482Z,9.88
2022-10-17T00:30:21.300Z,9.90
2022-10-17T00:32:48.246Z,9.93
2022-10-17T00:35:15.121Z,9.89
2022-10-17T00:37:42.046Z,9.92
2022-10-17T00:40:09.719Z,9.91
2022-10-17T00:42:36.646Z,9.90
2022-10-17T00:45:07.483Z,9.89
2022-10-17T00:47:36.994Z,9.89
2022-10-17T00:50:06.206Z,9.93
2022-10-17T00:52:33.451Z,9.94
2022-10-17T00:55:06.831Z,9.94
2022-10-17T00:57:34.141Z,9.97
2022-10-17T01:00:04.597Z,9.94
2022-10-17T01:02:31.694Z,9.93
2022-10-17T01:04:59.648Z,9.97
2022-10-17T01:07:33.111Z,9.97
2022-10-17T01:10:04.815Z,9.97
2022-10-17T01:12:52.442Z,9.98
2022-10-17T01:15:27.590Z,9.98
2022-10-17T01:18:32.630Z,10.00
2022-10-17T01:21:27.638Z,10.01
2022-10-17T01:24:29.651Z,10.03
2022-10-17T01:27:13.704Z,10.07
2022-10-17T01:30:05.577Z,10.07
2022-10-17T01:32:37.183Z,10.08
2022-10-17T01:35:30.866Z,10.10
2022-10-17T01:38:13.878Z,10.11
2022-10-17T01:41:00.578Z,10.10
2022-10-17T01:43:44.163Z,10.12
2022-10-17T01:46:22.250Z,10.12
2022-10-17T01:48:49.329Z,10.14
2022-10-17T01:51:21.532Z,10.15
2022-10-17T01:54:11.433Z,10.16
2022-10-17T01:56:41.191Z,10.16
2022-10-17T01:59:18.641Z,10.19
2022-10-17T02:01:50.492Z,10.19
2022-10-17T02:04:17.668Z,10.22
2022-10-17T02:06:44.617Z,10.22
2022-10-17T02:09:23.155Z,10.23
2022-10-17T02:12:14.679Z,10.25
2022-10-17T02:15:17.877Z,10.27
2022-10-17T02:17:53.911Z,10.28
2022-10-17T02:21:00.764Z,10.31
2022-10-17T02:23:36.205Z,10.31
2022-10-17T02:26:15.510Z,10.31
2022-10-17T02:28:50.004Z,10.31
2022-10-17T02:31:21.877Z,10.31
2022-10-17T02:34:16.010Z,10.30
2022-10-17T02:36:48.816Z,10.33
2022-10-17T02:39:16.801Z,10.31
2022-10-17T02:41:44.952Z,10.33
2022-10-17T02:44:12.257Z,10.33
2022-10-17T02:46:41.698Z,10.30
2022-10-17T02:49:20.973Z,10.29
2022-10-17T02:51:59.586Z,10.31
2022-10-17T02:54:40.284Z,10.30
2022-10-17T02:57:12.834Z,10.33
2022-10-17T02:59:41.889Z,10.30
2022-10-17T03:02:08.839Z,10.28
2022-10-17T03:04:35.786Z,10.30
2022-10-17T03:07:02.594Z,10.31
2022-10-17T03:09:29.478Z,10.33
2022-10-17T03:11:57.141Z,10.34
2022-10-17T03:14:24.015Z,10.33
2022-10-17T03:16:51.556Z,10.30
2022-10-17T03:19:19.021Z,10.30
2022-10-17T03:21:45.891Z,10.30
2022-10-17T03:24:12.922Z,10.30
2022-10-17T03:26:40.751Z,10.30
2022-10-17T03:29:08.001Z,10.28
2022-10-17T03:31:36.334Z,10.30
2022-10-17T03:34:05.393Z,10.31
2022-10-17T03:36:32.579Z,10.31
2022-10-17T03:39:00.899Z,10.31
2022-10-17T03:41:28.082Z,10.30
2022-10-17T03:43:54.888Z,10.30
2022-10-17T03:46:22.764Z,10.29
2022-10-17T03:48:49.670Z,10.30
2022-10-17T03:51:16.626Z,10.31
2022-10-17T03:53:49.161Z,10.31
2022-10-17T03:56:22.458Z,10.33
2022-10-17T03:58:57.605Z,10.34
2022-10-17T04:01:25.084Z,10.35
2022-10-17T04:03:56.005Z,10.36
2022-10-17T04:06:23.650Z,10.38
2022-10-17T04:08:50.766Z,10.38
2022-10-17T04:11:23.594Z,10.38
2022-10-17T04:13:55.478Z,10.40
2022-10-17T04:16:23.534Z,10.42
2022-10-17T04:18:59.642Z,10.41
2022-10-17T04:21:30.398Z,10.42
2022-10-17T04:24:01.309Z,10.43
2022-10-17T04:26:45.273Z,10.44
2022-10-17T04:29:13.194Z,10.44
2022-10-17T04:31:41.884Z,10.45
2022-10-17T04:34:19.759Z,10.48
2022-10-17T04:36:47.214Z,10.46
2022-10-17T04:41:46.650Z,10.50
2022-10-17T04:44:13.557Z,10.51
2022-10-17T04:46:45.638Z,10.52
2022-10-17T04:49:12.662Z,10.52
2022-10-17T04:51:42.777Z,10.50
2022-10-17T04:54:32.722Z,10.50
2022-10-17T04:57:07.030Z,10.52
2022-10-17T04:59:34.271Z,10.54
2022-10-17T05:02:36.514Z,10.54
2022-10-17T05:05:04.374Z,10.57
2022-10-17T05:07:31.154Z,10.56
2022-10-17T05:10:09.830Z,10.58
2022-10-17T05:12:36.846Z,10.62
2022-10-17T05:15:05.407Z,10.65
2022-10-17T05:17:33.544Z,10.66
2022-10-17T05:20:00.333Z,10.66
2022-10-17T05:22:28.496Z,10.66
2022-10-17T05:24:57.066Z,10.68
2022-10-17T05:27:23.886Z,10.69
2022-10-17T05:29:50.830Z,10.72
2022-10-17T05:32:23.888Z,10.71
2022-10-17T05:34:50.777Z,10.71
2022-10-17T05:37:17.842Z,10.71
2022-10-17T05:39:51.513Z,10.74
2022-10-17T05:42:19.708Z,10.73
2022-10-17T05:44:47.345Z,10.72
2022-10-17T05:47:16.380Z,10.72
2022-10-17T05:49:48.675Z,10.72
2022-10-17T05:52:22.132Z,10.74
2022-10-17T05:55:08.231Z,10.72
2022-10-17T05:57:35.378Z,10.72
2022-10-17T06:00:06.143Z,10.71
2022-10-17T06:02:41.272Z,10.69
2022-10-17T06:05:09.527Z,10.71
2022-10-17T06:07:36.779Z,10.72
2022-10-17T06:10:05.850Z,10.73
2022-10-17T06:12:32.842Z,10.70
2022-10-17T06:14:59.770Z,10.71
2022-10-17T06:17:28.185Z,10.70
2022-10-17T06:19:55.190Z,10.72
2022-10-17T06:22:23.565Z,10.71
2022-10-17T06:24:50.543Z,10.70
2022-10-17T06:27:17.354Z,10.69
2022-10-17T06:29:44.260Z,10.72
2022-10-17T06:32:14.179Z,10.68
2022-10-17T06:34:45.729Z,10.69
2022-10-17T06:37:12.727Z,10.68
2022-10-17T06:39:41.133Z,10.67
2022-10-17T06:42:12.524Z,10.68
2022-10-17T06:44:46.679Z,10.69
2022-10-17T06:47:34.395Z,10.68
2022-10-17T06:50:07.697Z,10.66
2022-10-17T06:52:58.094Z,10.68
2022-10-17T06:55:52.320Z,10.66
2022-10-17T06:58:41.502Z,10.65
2022-10-17T07:01:21.687Z,10.63
2022-10-17T07:03:50.286Z,10.66
2022-10-17T07:06:18.047Z,10.73
2022-10-17T07:08:46.091Z,10.67
2022-10-17T07:11:18.156Z,10.67
2022-10-17T07:13:45.584Z,10.64
2022-10-17T07:16:13.668Z,10.63
2022-10-17T07:18:42.209Z,10.64
2022-10-17T07:21:09.724Z,10.63
2022-10-17T07:23:39.886Z,10.63
2022-10-17T07:26:09.875Z,10.62
2022-10-17T07:28:40.627Z,10.62
2022-10-17T07:31:22.515Z,10.59
2022-10-17T07:33:50.193Z,10.60
2022-10-17T07:36:17.829Z,10.60
2022-10-17T07:38:44.933Z,10.63
2022-10-17T07:41:16.490Z,10.62
2022-10-17T07:43:46.991Z,10.62
2022-10-17T07:46:15.913Z,10.62
2022-10-17T07:48:44.517Z,10.62
2022-10-17T07:51:11.416Z,10.60
2022-10-17T07:53:41.711Z,10.62
2022-10-17T07:56:10.377Z,10.62
2022-10-17T07:58:38.308Z,10.60
2022-10-17T08:01:10.756Z,10.62
2022-10-17T08:03:42.912Z,10.62
2022-10-17T08:06:09.873Z,10.65
2022-10-17T08:08:36.655Z,10.62
2022-10-17T08:11:09.667Z,10.64
2022-10-17T08:13:37.555Z,10.63
2022-10-17T08:16:07.572Z,10.62
2022-10-17T08:18:36.137Z,10.63
2022-10-17T08:21:08.442Z,10.64
2022-10-17T08:23:36.606Z,10.63
2022-10-17T08:26:05.954Z,10.66
2022-10-17T08:28:35.598Z,10.66
2022-10-17T08:31:07.867Z,10.69
2022-10-17T08:33:35.226Z,10.68
2022-10-17T08:36:03.122Z,10.68
2022-10-17T08:38:35.135Z,10.67
2022-10-17T08:41:23.723Z,10.66
2022-10-17T08:43:58.803Z,10.67
2022-10-17T08:46:35.536Z,10.67
2022-10-17T08:49:08.728Z,10.67
2022-10-17T08:51:44.390Z,10.69
2022-10-17T08:54:11.231Z,10.70
2022-10-17T08:56:49.863Z,10.73
2022-10-17T08:59:28.574Z,10.78
2022-10-17T09:02:10.534Z,10.78
2022-10-17T09:04:54.562Z,10.82
2022-10-17T09:07:44.657Z,10.84
2022-10-17T09:10:18.786Z,10.82
2022-10-17T09:13:14.930Z,10.85
2022-10-17T09:15:53.654Z,10.84
2022-10-17T09:18:36.548Z,10.86
2022-10-17T09:21:30.390Z,10.87
2022-10-17T09:24:09.116Z,10.92
2022-10-17T09:26:39.492Z,10.96
2022-10-17T09:29:20.099Z,10.99
2022-10-17T09:31:58.603Z,10.99
2022-10-17T09:34:28.314Z,11.01
2022-10-17T09:36:58.002Z,11.03
2022-10-17T09:39:26.755Z,11.04
2022-10-17T09:41:57.039Z,11.04
2022-10-17T09:44:29.847Z,11.07
2022-10-17T09:47:34.791Z,11.09
2022-10-17T09:50:02.237Z,11.10
2022-10-17T09:52:40.244Z,11.13
2022-10-17T09:55:29.557Z,11.12
2022-10-17T09:58:05.066Z,11.16
2022-10-17T10:00:37.991Z,11.19
2022-10-17T10:03:28.189Z,11.19
2022-10-17T10:06:14.771Z,11.22
2022-10-17T10:08:49.717Z,11.20
2022-10-17T10:11:18.100Z,11.23
2022-10-17T10:13:47.307Z,11.23
2022-10-17T10:16:41.371Z,11.24
2022-10-17T10:19:26.584Z,11.23
2022-10-17T10:21:58.721Z,11.25
2022-10-17T10:24:30.769Z,11.30
2022-10-17T10:27:01.594Z,11.30
2022-10-17T10:29:41.751Z,11.31
2022-10-17T10:32:20.570Z,11.34
2022-10-17T10:34:57.827Z,11.38
2022-10-17T10:37:49.652Z,11.36
2022-10-17T10:40:21.121Z,11.36
2022-10-17T10:42:51.328Z,11.38
2022-10-17T10:48:25.682Z,11.38
2022-10-17T10:51:01.243Z,11.38
2022-10-17T10:53:58.677Z,11.39
2022-10-17T10:56:44.930Z,11.39
2022-10-17T10:59:26.211Z,11.39
2022-10-17T11:02:12.763Z,11.39
2022-10-17T11:05:10.673Z,11.37
2022-10-17T11:08:09.469Z,11.34
2022-10-17T11:10:44.775Z,11.33
2022-10-17T11:13:30.791Z,11.33
2022-10-17T11:16:16.009Z,11.37
2022-10-17T11:18:53.645Z,11.39
2022-10-17T11:21:29.024Z,11.40
2022-10-17T11:24:15.474Z,11.41
2022-10-17T11:26:49.531Z,11.46
2022-10-17T11:29:16.656Z,11.53
2022-10-17T11:31:47.460Z,11.51
2022-10-17T11:34:24.174Z,11.54
2022-10-17T11:36:56.832Z,11.54
2022-10-17T11:39:49.217Z,11.55
2022-10-17T11:42:24.729Z,11.58
2022-10-17T11:44:58.915Z,11.60
2022-10-17T11:47:38.668Z,11.58
2022-10-17T11:53:20.267Z,11.60
2022-10-17T11:55:47.888Z,11.62
2022-10-17T11:58:40.946Z,11.66
2022-10-17T12:01:17.575Z,11.63
2022-10-17T12:04:03.380Z,11.61
2022-10-17T12:06:51.887Z,11.63
2022-10-17T12:09:25.397Z,11.64
2022-10-17T12:11:58.837Z,11.64
2022-10-17T12:14:46.562Z,11.62
2022-10-17T12:17:22.661Z,11.63
2022-10-17T12:19:49.694Z,11.62
2022-10-17T12:22:21.552Z,11.64
2022-10-17T12:24:58.893Z,11.66
2022-10-17T12:27:38.068Z,11.64
2022-10-17T12:30:18.895Z,11.63
2022-10-17T12:33:07.459Z,11.66
2022-10-17T12:35:37.034Z,11.70
2022-10-17T12:38:15.413Z,11.68
2022-10-17T12:40:47.746Z,11.67
2022-10-17T12:43:15.618Z,11.67
2022-10-17T12:45:56.421Z,11.64
2022-10-17T12:48:38.174Z,11.62
2022-10-17T12:54:12.729Z,11.57
2022-10-17T12:56:43.131Z,11.62
2022-10-17T12:59:28.584Z,11.59
2022-10-17T13:01:59.513Z,11.55
2022-10-17T13:04:28.309Z,11.55
2022-10-17T13:06:57.138Z,11.57
2022-10-17T13:09:29.995Z,11.57
2022-10-17T13:12:06.542Z,11.60
2022-10-17T13:14:34.889Z,11.56
2022-10-17T13:17:06.862Z,11.58
2022-10-17T13:19:46.382Z,11.59
2022-10-17T13:22:20.959Z,11.60
2022-10-17T13:24:49.594Z,11.62
2022-10-17T13:27:29.108Z,11.61
2022-10-17T13:29:57.815Z,11.61
2022-10-17T13:32:27.156Z,11.60
2022-10-17T13:35:12.854Z,11.58
2022-10-17T13:37:42.462Z,11.59
2022-10-17T13:40:40.300Z,11.58
2022-10-17T13:43:06.333Z,11.59
2022-10-17T13:45:38.209Z,11.62
2022-10-17T13:48:16.254Z,11.59
2022-10-17T13:50:44.819Z,11.61
2022-10-17T13:53:35.259Z,11.64
2022-10-17T13:56:29.875Z,11.67
2022-10-17T13:59:03.908Z,11.69
2022-10-17T14:01:31.275Z,11.72
2022-10-17T14:04:20.212Z,11.75
2022-10-17T14:06:49.639Z,11.76
2022-10-17T14:09:28.870Z,11.75
2022-10-17T14:12:13.089Z,11.77
2022-10-17T14:15:08.608Z,11.78
2022-10-17T14:17:34.033Z,11.78
2022-10-17T14:20:34.384Z,11.82
2022-10-17T14:23:17.523Z,11.88
2022-10-17T14:25:40.649Z,11.86
2022-10-17T14:28:09.488Z,11.84
2022-10-17T14:30:57.578Z,11.83
2022-10-17T14:33:29.849Z,11.83
2022-10-17T14:35:58.537Z,11.85
2022-10-17T14:38:26.711Z,11.87
2022-10-17T14:41:15.360Z,11.90
2022-10-17T14:43:45.602Z,11.91
2022-10-17T14:46:15.367Z,11.91
2022-10-17T14:48:43.218Z,11.92
2022-10-17T14:51:16.809Z,11.91
2022-10-17T14:54:22.783Z,11.91
2022-10-17T14:56:52.817Z,11.91
2022-10-17T14:59:48.499Z,11.89
2022-10-17T15:02:11.661Z,11.89
2022-10-17T15:04:38.422Z,11.88
2022-10-17T15:07:05.466Z,11.86
2022-10-17T15:09:32.273Z,11.86
2022-10-17T15:12:02.580Z,11.85
2022-10-17T15:14:29.618Z,11.86
2022-10-17T15:16:56.440Z,11.86
2022-10-17T15:19:23.296Z,11.87
2022-10-17T15:21:50.052Z,11.86
2022-10-17T15:24:16.994Z,11.85
2022-10-17T15:26:43.889Z,11.86
2022-10-17T15:29:15.388Z,11.87
2022-10-17T15:31:42.373Z,11.89
2022-10-17T15:34:09.191Z,11.89
2022-10-17T15:36:48.409Z,11.89
2022-10-17T15:39:15.318Z,11.90
2022-10-17T15:41:42.191Z,11.91
2022-10-17T15:44:09.110Z,11.92
2022-10-17T15:46:36.309Z,11.94
2022-10-17T15:49:07.644Z,11.93
2022-10-17T15:51:34.586Z,11.91
2022-10-17T15:54:01.810Z,11.93
2022-10-17T15:56:36.447Z,11.92
2022-10-17T15:59:06.854Z,11.90
2022-10-17T16:01:34.857Z,11.90
2022-10-17T16:04:02.019Z,11.92
2022-10-17T16:06:29.247Z,11.92
2022-10-17T16:08:56.242Z,11.91
2022-10-17T16:11:33.785Z,11.88
2022-10-17T16:14:04.709Z,11.89
2022-10-17T16:16:31.888Z,11.90
2022-10-17T16:18:58.882Z,11.87
2022-10-17T16:24:01.848Z,11.89
2022-10-17T16:26:29.139Z,11.90
2022-10-17T16:28:57.937Z,11.91
2022-10-17T16:31:30.513Z,11.93
2022-10-17T16:33:58.953Z,11.94
2022-10-17T16:36:25.994Z,11.93
2022-10-17T16:38:54.178Z,11.90
2022-10-17T16:41:25.959Z,11.90
2022-10-17T16:43:54.618Z,11.88
2022-10-17T16:46:22.058Z,11.91
2022-10-17T16:48:49.219Z,11.89
2022-10-17T16:51:18.498Z,11.86
2022-10-17T16:53:47.383Z,11.83
2022-10-17T16:56:17.957Z,11.83
2022-10-17T16:58:45.551Z,11.83
2022-10-17T17:01:15.501Z,11.84
2022-10-17T17:03:44.888Z,11.82
2022-10-17T17:06:15.855Z,11.82
2022-10-17T17:08:43.631Z,11.79
2022-10-17T17:11:12.845Z,11.76
2022-10-17T17:13:40.827Z,11.77
2022-10-17T17:16:09.144Z,11.78
2022-10-17T17:18:36.219Z,11.74
2022-10-17T17:21:05.784Z,11.74
2022-10-17T17:23:34.959Z,11.74
2022-10-17T17:26:06.848Z,11.72
2022-10-17T17:28:34.580Z,11.74
2022-10-17T17:31:01.747Z,11.71
2022-10-17T17:33:30.138Z,11.71
2022-10-17T17:36:01.850Z,11.72
2022-10-17T17:38:30.836Z,11.74
2022-10-17T17:40:58.139Z,11.73
2022-10-17T17:43:25.124Z,11.74
2022-10-17T17:45:52.153Z,11.74
2022-10-17T17:48:19.435Z,11.73
2022-10-17T17:50:46.819Z,11.73
2022-10-17T17:53:16.558Z,11.70
2022-10-17T17:55:43.471Z,11.69
2022-10-17T17:58:12.360Z,11.69
2022-10-17T18:00:40.671Z,11.68
2022-10-17T18:03:08.300Z,11.67
2022-10-17T18:05:35.594Z,11.67
2022-10-17T18:08:02.514Z,11.64
2022-10-17T18:10:29.517Z,11.64
2022-10-17T18:12:56.376Z,11.64
2022-10-17T18:15:23.274Z,11.64
2022-10-17T18:17:50.082Z,11.64
2022-10-17T18:20:17.108Z,11.64
2022-10-17T18:22:43.919Z,11.64
2022-10-17T18:25:10.817Z,11.63
2022-10-17T18:27:37.701Z,11.63
2022-10-17T18:30:05.210Z,11.62
2022-10-17T18:32:32.871Z,11.62
2022-10-17T18:35:00.456Z,11.64
2022-10-17T18:37:27.297Z,11.67
2022-10-17T18:39:55.872Z,11.72
2022-10-17T18:42:22.800Z,11.70
2022-10-17T18:44:50.017Z,11.71
2022-10-17T18:47:16.887Z,11.71
2022-10-17T18:49:43.980Z,11.71
2022-10-17T18:52:10.852Z,11.72
2022-10-17T18:54:37.737Z,11.73
2022-10-17T18:57:04.764Z,11.73
2022-10-17T18:59:32.042Z,11.71
2022-10-17T19:01:58.829Z,11.67
2022-10-17T19:04:25.999Z,11.66
2022-10-17T19:06:52.904Z,11.66
2022-10-17T19:09:19.746Z,11.64
2022-10-17T19:11:46.820Z,11.63
2022-10-17T19:14:14.024Z,11.66
2022-10-17T19:16:45.234Z,11.67
2022-10-17T19:19:15.872Z,11.63
2022-10-17T19:21:43.661Z,11.62
2022-10-17T19:24:18.675Z,11.62
2022-10-17T19:26:47.200Z,11.63
2022-10-17T19:29:15.407Z,11.62
2022-10-17T19:31:42.748Z,11.62
2022-10-17T19:34:11.091Z,11.60
2022-10-17T19:36:38.525Z,11.57
2022-10-17T19:39:08.669Z,11.60
2022-10-17T19:41:36.443Z,11.58
2022-10-17T19:44:03.761Z,11.56
2022-10-17T19:46:32.175Z,11.55
2022-10-17T19:48:58.990Z,11.55
2022-10-17T19:51:26.425Z,11.55
2022-10-17T19:53:55.350Z,11.53
2022-10-17T19:56:24.081Z,11.56
2022-10-17T19:58:51.826Z,11.57
2022-10-17T20:01:28.514Z,11.56
2022-10-17T20:03:56.450Z,11.56
2022-10-17T20:06:24.218Z,11.56
2022-10-17T20:08:51.172Z,11.56
2022-10-17T20:11:24.868Z,11.55
2022-10-17T20:13:52.641Z,11.54
2022-10-17T20:16:22.657Z,11.54
2022-10-17T20:18:50.947Z,11.54
2022-10-17T20:21:21.133Z,11.55
2022-10-17T20:23:48.066Z,11.54
2022-10-17T20:26:26.341Z,11.52
2022-10-17T20:29:05.646Z,11.53
2022-10-17T20:31:32.492Z,11.49
2022-10-17T20:34:00.297Z,11.48
2022-10-17T20:36:27.314Z,11.48
2022-10-17T20:38:55.964Z,11.51
2022-10-17T20:41:23.634Z,11.51
2022-10-17T20:43:52.002Z,11.51
2022-10-17T20:46:35.898Z,11.49
2022-10-17T20:49:05.790Z,11.47
2022-10-17T20:51:33.064Z,11.44
2022-10-17T20:54:00.156Z,11.45
2022-10-17T20:56:30.659Z,11.45
2022-10-17T20:59:04.767Z,11.43
2022-10-17T21:01:33.717Z,11.44
2022-10-17T21:04:21.501Z,11.46
2022-10-17T21:06:48.534Z,11.48
2022-10-17T21:09:15.519Z,11.45
2022-10-17T21:11:43.219Z,11.48
2022-10-17T21:14:11.242Z,11.49
2022-10-17T21:16:39.410Z,11.44
2022-10-17T21:19:06.571Z,11.43
2022-10-17T21:21:36.634Z,11.42
2022-10-17T21:24:06.521Z,11.42
2022-10-17T21:26:35.840Z,11.40
2022-10-17T21:29:05.937Z,11.42
2022-10-17T21:31:37.724Z,11.37
2022-10-17T21:34:15.375Z,11.37
2022-10-17T21:36:43.479Z,11.38
2022-10-17T21:39:11.735Z,11.37
2022-10-17T21:41:38.827Z,11.37
2022-10-17T21:44:11.463Z,11.36
2022-10-17T21:46:38.342Z,11.34
2022-10-17T21:49:05.089Z,11.33
2022-10-17T21:51:31.918Z,11.33
2022-10-17T21:53:58.737Z,11.33
2022-10-17T21:56:28.954Z,11.31
2022-10-17T21:58:57.800Z,11.33
2022-10-17T22:01:26.053Z,11.27
2022-10-17T22:03:55.566Z,11.27
2022-10-17T22:06:39.261Z,11.29
2022-10-17T22:09:29.562Z,11.28
2022-10-17T22:11:57.125Z,11.28
2022-10-17T22:14:27.339Z,11.27
2022-10-17T22:16:54.644Z,11.26
2022-10-17T22:19:23.918Z,11.24
2022-10-17T22:21:51.272Z,11.24
2022-10-17T22:26:51.914Z,11.23
2022-10-17T22:29:19.193Z,11.22
2022-10-17T22:31:46.377Z,11.22
2022-10-17T22:34:15.540Z,11.23
2022-10-17T22:36:42.757Z,11.22
2022-10-17T22:39:10.739Z,11.22
2022-10-17T22:41:37.599Z,11.15
2022-10-17T22:44:04.845Z,11.14
2022-10-17T22:46:31.698Z,11.13
2022-10-17T22:48:58.478Z,11.14
2022-10-17T22:51:25.342Z,11.13
2022-10-17T22:53:52.246Z,11.13
2022-10-17T22:56:20.791Z,11.12
2022-10-17T22:58:47.917Z,11.13
2022-10-17T23:01:17.353Z,11.13
2022-10-17T23:03:44.537Z,11.10
2022-10-17T23:06:11.622Z,11.14
2022-10-17T23:08:38.880Z,11.09
2022-10-17T23:11:06.619Z,11.10
2022-10-17T23:13:33.670Z,11.09
2022-10-17T23:16:00.750Z,11.10
2022-10-17T23:18:28.088Z,11.07
2022-10-17T23:20:55.617Z,11.08
2022-10-17T23:23:22.576Z,11.10
2022-10-17T23:25:50.494Z,11.13
2022-10-17T23:28:18.367Z,11.12
2022-10-17T23:30:45.395Z,11.11
2022-10-17T23:33:13.543Z,11.15
2022-10-17T23:35:40.814Z,11.11
2022-10-17T23:38:07.886Z,11.14
2022-10-17T23:40:35.404Z,11.14
2022-10-17T23:43:03.395Z,11.16
2022-10-17T23:45:34.643Z,11.13
2022-10-17T23:48:04.966Z,11.15
2022-10-17T23:50:31.738Z,11.16
2022-10-17T23:52:58.685Z,11.13
2022-10-17T23:55:25.451Z,11.13
2022-10-17T23:57:52.294Z,11.14
